WetterOnline ( https://www.wetteronline.de )

Wetter aktuell Asch

Aktuelles Wetter: Wunsiedel-Schönbrunn (622m)

6-stündlich | Neueste Meldungen
Ortszeit Temperatur Wetter
Do, 29.07. 20:00 18.5° C leicht bewölkt
Do, 29.07. 14:00 19.6° C leicht bewölkt
Do, 29.07. 8:00 15.1° C wolkenlos
Do, 29.07. 2:00 14.1° C leicht bewölkt
Mi, 28.07. 20:00 17.0° C wolkenlos
Mi, 28.07. 14:00 15.8° C Regen
Mi, 28.07. 8:00 15.5° C Sprühregen
Mi, 28.07. 2:00 16.5° C leicht bewölkt
Ortszeit Temperatur Wetter
Do, 29.07. 21:10 16.1° C leicht bewölkt
Do, 29.07. 21:00 17.0° C fast wolkenlos
Do, 29.07. 20:50 17.0° C wolkenlos
Do, 29.07. 20:40 17.4° C wolkenlos
Do, 29.07. 20:30 17.9° C wolkenlos
Do, 29.07. 20:20 17.9° C wolkenlos
Do, 29.07. 20:00 18.5° C leicht bewölkt
Do, 29.07. 19:30 19.1° C leicht bewölkt
Do, 29.07. 19:00 19.0° C fast wolkenlos
Do, 29.07. 18:30 19.5° C fast wolkenlos
Do, 29.07. 18:00 19.8° C leicht bewölkt
Ortszeit Relative Feuchte Sichtweite
Do, 29.07. 20:00 54% >70 km
Do, 29.07. 14:00 57% 65 km
Do, 29.07. 8:00 80% 60 km
Do, 29.07. 2:00 94% 30 km
Mi, 28.07. 20:00 81% 35 km
Mi, 28.07. 14:00 90% 8 km
Mi, 28.07. 8:00 97% 4.7 km
Mi, 28.07. 2:00 87% 40 km
Ortszeit Relative Feuchte Sichtweite
Do, 29.07. 21:10 64% -
Do, 29.07. 21:00 59% 65 km
Do, 29.07. 20:50 59% -
Do, 29.07. 20:40 58% -
Do, 29.07. 20:30 56% 65 km
Do, 29.07. 20:20 56% -
Do, 29.07. 20:00 54% >70 km
Do, 29.07. 19:30 51% 50 km
Do, 29.07. 19:00 51% >70 km
Do, 29.07. 18:30 48% 50 km
Do, 29.07. 18:00 48% 45 km
Ortszeit Niederschlagsmenge Niederschlagsart
Do, 29.07. 20:00 0.0 l/m2 in 12 Std. -
Do, 29.07. 14:00 0.0 l/m2 in 6 Std. -
Do, 29.07. 8:00 0.1 l/m2 in 12 Std. -
Do, 29.07. 2:00 0.1 l/m2 in 6 Std. Regen
Mi, 28.07. 20:00 2 l/m2 in 12 Std. Regen
Mi, 28.07. 14:00 0.7 l/m2 in 6 Std. Regen
Mi, 28.07. 8:00 2 l/m2 in 12 Std. Regen
Mi, 28.07. 2:00 0.1 l/m2 in 6 Std. Regen
Ortszeit Niederschlagsmenge Niederschlagsart
Do, 29.07. 21:10 keine Meldung -
Do, 29.07. 21:00 0.0 l/m2 in 1 Std. -
Do, 29.07. 20:50 keine Meldung -
Do, 29.07. 20:40 keine Meldung -
Do, 29.07. 20:30 0.0 l/m2 in 1 Std. -
Do, 29.07. 20:20 keine Meldung -
Do, 29.07. 20:00 0.0 l/m2 in 1 Std. -
Do, 29.07. 19:30 0.0 l/m2 in 1 Std. -
Do, 29.07. 19:00 0.0 l/m2 in 1 Std. -
Do, 29.07. 18:30 0.0 l/m2 in 1 Std. -
Do, 29.07. 18:00 0.0 l/m2 in 1 Std. -
Ortszeit Stärke Spitze Richtung
km/h Bft. km/h Grad Sektor
Do, 29.07. 20:00 9 2 54 260° W
Do, 29.07. 14:00 25 4 50 250° W
Do, 29.07. 8:00 18 3 29 240° SW
Do, 29.07. 2:00 7 2 25 220° SW
Mi, 28.07. 20:00 18 3 29 220° SW
Mi, 28.07. 14:00 11 2 36 250° W
Mi, 28.07. 8:00 7 2 18 220° SW
Mi, 28.07. 2:00 9 2 13 230° SW
Ortszeit Stärke Spitze Richtung
km/h Bft. km/h Grad Sektor
Do, 29.07. 21:10 6 1 - 270° W
Do, 29.07. 21:00 7 2 22 260° W
Do, 29.07. 20:50 7 2 - 260° W
Do, 29.07. 20:40 7 2 - 270° W
Do, 29.07. 20:30 9 2 22 250° W
Do, 29.07. 20:20 9 2 - 250° W
Do, 29.07. 20:00 9 2 28 260° W
Do, 29.07. 19:30 14 3 29 240° SW
Do, 29.07. 19:00 17 3 37 250° W
Do, 29.07. 18:30 18 3 36 240° SW
Do, 29.07. 18:00 20 4 41 230° SW
Ortszeit Untergrenze Bedeckung Gattung
total tief tief mittel hoch
Do, 29.07. 20:00 1500 m 2/8 2/8 - - -
Do, 29.07. 14:00 1410 m 4/8 4/8 - - -
Do, 29.07. 8:00 - 0/8 0/8 - - -
Do, 29.07. 2:00 1440 m 4/8 4/8 - - -
Mi, 28.07. 20:00 - 0/8 0/8 - - -
Mi, 28.07. 14:00 1800 m 7/8 7/8 - - -
Mi, 28.07. 8:00 180 m 8/8 8/8 - - -
Mi, 28.07. 2:00 4800 m 2/8 2/8 - - -
Ortszeit Bedeckungsgrad in Achtel und Wolkenuntergrenze
Do, 29.07. 21:10 2(1470m)
Do, 29.07. 21:00 2(1470m)
Do, 29.07. 20:50 keine Wolken
Do, 29.07. 20:40 keine Wolken
Do, 29.07. 20:30 keine Wolken
Do, 29.07. 20:20 keine Wolken
Do, 29.07. 20:00 2(1500m)
Do, 29.07. 19:30 4(1500m)
Do, 29.07. 19:00 1(1500m)
Do, 29.07. 18:30 1(1500m)
Do, 29.07. 18:00 2(1500m)
Ortszeit Luftdruck NN (hPa) Tendenz (hPa in 3 Std.)
Do, 29.07. 20:00 1013 - 0,2
Do, 29.07. 14:00 1013 - 0,3
Do, 29.07. 8:00 1015 + 0,5
Do, 29.07. 2:00 1015 - 0,1
Mi, 28.07. 20:00 1013 - 0,5
Mi, 28.07. 14:00 1014 + 0,4
Mi, 28.07. 8:00 1014 + 0,5
Mi, 28.07. 2:00 1012 - 1,3
Ortszeit Luftdruck NN (hPa) Tendenz (hPa in 3 Std.)
Do, 29.07. 21:10 1013 keine Meldung
Do, 29.07. 21:00 1013 0,0
Do, 29.07. 20:50 1013 keine Meldung
Do, 29.07. 20:40 1013 keine Meldung
Do, 29.07. 20:30 1013 - 0,2
Do, 29.07. 20:20 1013 keine Meldung
Do, 29.07. 20:00 1013 - 0,2
Do, 29.07. 19:30 1012 - 0,2
Do, 29.07. 19:00 1013 - 0,2
Do, 29.07. 18:30 1013 - 0,2
Do, 29.07. 18:00 1012 - 0,3
Ortszeit Schneehöhe (cm)
Do, 29.07. 20:00 -
Do, 29.07. 14:00 -
Do, 29.07. 8:00 -
Do, 29.07. 2:00 -
Mi, 28.07. 20:00 -
Mi, 28.07. 14:00 -
Mi, 28.07. 8:00 -
Mi, 28.07. 2:00 -
Ortszeit Schneehöhe (cm)
Do, 29.07. 21:10 -
Do, 29.07. 21:00 -
Do, 29.07. 20:50 -
Do, 29.07. 20:40 -
Do, 29.07. 20:30 -
Do, 29.07. 20:20 -
Do, 29.07. 20:00 -
Do, 29.07. 19:30 -
Do, 29.07. 19:00 -
Do, 29.07. 18:30 -
Do, 29.07. 18:00 -
Link zu dieser Seite / Seite empfehlen

Das Wetter in ...